Time;durP1;ratioP1;P1;durP2;ratioP2;P2;SDS_P1;SDS_P2;PMS_P1;PMS_P2;Temp;Humidity;BMP_temperature;BMP_pressure;BME280_temperature;BME280_humidity;BME280_pressure;Samples;Min_cycle;Max_cycle;Signal;HPM_P1;HPM_P2
2023/01/07 00:01:05;;;;;;;4.50;4.40;;;;;;;10.51;84.26;101364.19;5117794;28;20577;-71
2023/01/07 00:03:32;;;;;;;2.60;2.60;;;;;;;10.54;83.76;101360.44;5118010;28;20268;-71
2023/01/07 00:06:04;;;;;;;3.50;3.50;;;;;;;10.54;83.41;101361.31;5117642;28;20532;-71
2023/01/07 00:08:32;;;;;;;2.03;2.03;;;;;;;10.56;83.43;101364.75;5117635;28;20256;-71
2023/01/07 00:11:07;;;;;;;2.73;2.53;;;;;;;10.55;84.04;101352.28;5117775;28;20205;-72
2023/01/07 00:13:35;;;;;;;2.60;2.60;;;;;;;10.52;83.54;101355.16;5118134;28;20260;-71
2023/01/07 00:16:10;;;;;;;2.50;2.40;;;;;;;10.46;83.87;101354.69;5117461;28;20738;-71
2023/01/07 00:18:37;;;;;;;3.27;3.27;;;;;;;10.46;83.43;101357.34;5117747;28;20580;-71
2023/01/07 00:21:06;;;;;;;3.03;2.97;;;;;;;10.40;83.88;101354.09;5117566;28;20718;-72
2023/01/07 00:23:34;;;;;;;3.60;3.57;;;;;;;10.45;83.74;101352.97;5117641;28;20597;-71
2023/01/07 00:26:03;;;;;;;2.93;2.80;;;;;;;10.50;83.07;101354.41;5117230;28;20242;-71
2023/01/07 00:28:32;;;;;;;2.47;2.37;;;;;;;10.52;83.49;101355.16;5117235;28;20181;-71
2023/01/07 00:31:00;;;;;;;2.53;2.23;;;;;;;10.44;83.65;101346.75;5117122;28;20209;-71
2023/01/07 00:33:27;;;;;;;2.20;2.20;;;;;;;10.45;83.55;101347.63;5099028;28;20191;-71
2023/01/07 00:36:07;;;;;;;2.40;2.40;;;;;;;10.48;83.65;101345.59;5117458;28;20172;-71
2023/01/07 00:38:34;;;;;;;1.80;1.80;;;;;;;10.49;82.91;101341.97;5117391;28;20183;-71
2023/01/07 00:41:01;;;;;;;1.93;1.93;;;;;;;10.40;83.68;101348.75;5117012;28;20268;-71
2023/01/07 00:43:28;;;;;;;2.13;2.13;;;;;;;10.43;83.41;101343.19;5116903;28;20284;-71
2023/01/07 00:45:55;;;;;;;1.80;1.80;;;;;;;10.39;83.40;101343.47;5116929;28;20620;-71
2023/01/07 00:48:22;;;;;;;1.77;1.67;;;;;;;10.45;82.98;101350.28;5098626;28;20196;-71
2023/01/07 00:50:50;;;;;;;2.43;2.43;;;;;;;10.38;83.57;101342.63;5116758;28;20284;-71
2023/01/07 00:53:17;;;;;;;1.87;1.87;;;;;;;10.44;83.26;101338.72;5098523;28;20203;-71
2023/01/07 00:55:44;;;;;;;1.80;1.80;;;;;;;10.41;83.21;101334.44;5098391;28;20746;-71
2023/01/07 00:58:14;;;;;;;1.97;1.97;;;;;;;10.41;83.43;101331.75;5116620;28;20304;-71
2023/01/07 01:00:41;;;;;;;2.30;1.80;;;;;;;10.45;83.17;101318.16;5098621;28;20212;-72
2023/01/07 01:03:10;;;;;;;1.83;1.83;;;;;;;10.43;83.07;101321.78;5098797;28;20192;-72
2023/01/07 01:05:38;;;;;;;1.90;1.80;;;;;;;10.42;82.53;101321.88;5098377;28;20193;-72
2023/01/07 01:08:05;;;;;;;1.60;1.60;;;;;;;10.49;82.51;101315.19;5115352;28;20197;-72
2023/01/07 01:10:31;;;;;;;1.67;1.60;;;;;;;10.49;82.42;101317.88;5099645;28;20559;-71
2023/01/07 01:12:59;;;;;;;1.83;1.73;;;;;;;10.54;81.95;101310.41;5116850;28;20220;-71
2023/01/07 01:15:25;;;;;;;1.73;1.70;;;;;;;10.57;82.10;101320.94;5117266;28;20535;-72
2023/01/07 01:17:52;;;;;;;1.73;1.73;;;;;;;10.56;82.34;101318.34;5098062;28;20244;-72
2023/01/07 01:20:19;;;;;;;5.83;1.57;;;;;;;10.57;82.23;101320.06;5116722;28;20276;-72
2023/01/07 01:22:46;;;;;;;2.03;2.03;;;;;;;10.53;82.43;101316.72;5098129;28;20177;-72
2023/01/07 01:25:13;;;;;;;2.10;2.10;;;;;;;10.56;82.18;101316.53;5116256;28;20188;-72
2023/01/07 01:27:39;;;;;;;1.73;1.63;;;;;;;10.57;82.12;101318.25;5097895;28;20296;-72
2023/01/07 01:30:06;;;;;;;1.60;1.60;;;;;;;10.63;81.37;101319.66;5098075;28;20288;-72
2023/01/07 01:32:35;;;;;;;1.97;1.93;;;;;;;10.60;81.44;101306.47;5097714;28;20751;-72
2023/01/07 01:35:02;;;;;;;1.87;1.77;;;;;;;10.60;81.36;101314.50;5116654;28;20238;-70
2023/01/07 01:37:28;;;;;;;1.53;1.53;;;;;;;10.58;82.04;101324.47;5115976;28;20551;-69
2023/01/07 01:39:56;;;;;;;1.53;1.53;;;;;;;10.67;80.61;101313.19;5097633;28;20194;-69
2023/01/07 01:42:24;;;;;;;1.50;1.50;;;;;;;10.69;81.01;101313.09;5097541;28;20643;-69
2023/01/07 01:44:56;;;;;;;1.37;1.37;;;;;;;10.67;81.19;101315.00;5097508;28;20189;-70
2023/01/07 01:47:51;;;;;;;1.43;1.43;;;;;;;10.64;81.05;101311.56;5097417;28;20695;-69
2023/01/07 01:50:40;;;;;;;1.50;1.50;;;;;;;10.70;80.33;101309.44;5097466;28;20278;-70
2023/01/07 01:53:12;;;;;;;1.30;1.30;;;;;;;10.64;80.67;101308.03;5098191;28;20644;-70
2023/01/07 01:55:48;;;;;;;1.30;1.30;;;;;;;10.64;80.67;101303.50;5116179;28;20161;-70
2023/01/07 01:58:27;;;;;;;1.57;1.57;;;;;;;10.56;81.36;101307.63;5115525;28;20205;-70
2023/01/07 02:00:54;;;;;;;1.30;1.30;;;;;;;10.54;81.45;101305.06;5097246;28;20188;-70
2023/01/07 02:03:23;;;;;;;1.30;1.30;;;;;;;10.55;81.56;101300.56;5098072;28;20283;-70
2023/01/07 02:05:50;;;;;;;2.70;1.77;;;;;;;10.53;81.51;101291.75;5115705;28;20264;-70
2023/01/07 02:08:20;;;;;;;1.33;1.33;;;;;;;10.56;81.37;101295.13;5115550;28;20197;-70
2023/01/07 02:10:59;;;;;;;1.93;1.83;;;;;;;10.56;81.66;101291.56;5097317;28;20250;-71
2023/01/07 02:13:55;;;;;;;4.80;1.70;;;;;;;10.48;81.18;101302.75;5115849;28;20172;-71
2023/01/07 02:16:50;;;;;;;1.37;1.37;;;;;;;10.45;81.65;101302.94;5096935;28;20213;-71
2023/01/07 02:19:27;;;;;;;2.43;2.33;;;;;;;10.49;81.34;101285.75;5096887;28;20208;-71
2023/01/07 02:22:04;;;;;;;3.53;2.00;;;;;;;10.42;81.64;101290.59;5096701;28;20207;-71
2023/01/07 02:24:45;;;;;;;2.33;2.33;;;;;;;10.46;81.90;101280.56;5096736;28;20689;-71
2023/01/07 02:27:20;;;;;;;3.30;3.30;;;;;;;10.44;81.72;101279.81;5096667;28;20204;-71
2023/01/07 02:30:03;;;;;;;3.97;3.87;;;;;;;10.46;81.84;101282.38;5096723;28;20279;-71
2023/01/07 02:32:53;;;;;;;3.27;3.17;;;;;;;10.42;81.58;101290.59;5097432;28;20237;-71
2023/01/07 02:35:37;;;;;;;2.57;2.57;;;;;;;10.45;81.90;101291.38;5115400;28;20166;-71
2023/01/07 02:38:19;;;;;;;2.57;2.57;;;;;;;10.41;81.59;101296.03;5096492;28;20270;-71
2023/01/07 02:41:16;;;;;;;3.60;3.40;;;;;;;10.44;81.38;101293.22;5097447;28;20188;-71
2023/01/07 02:43:53;;;;;;;1.80;1.70;;;;;;;10.42;81.44;101285.25;5096527;28;20185;-71
2023/01/07 02:46:32;;;;;;;3.10;3.10;;;;;;;10.42;81.17;101274.53;5096301;28;20243;-71
2023/01/07 02:49:03;;;;;;;2.77;2.67;;;;;;;10.42;80.86;101287.06;5114885;28;20226;-71
2023/01/07 02:51:34;;;;;;;3.13;3.13;;;;;;;10.35;81.37;101286.59;5096295;28;20768;-71
2023/01/07 02:54:01;;;;;;;3.10;3.10;;;;;;;10.34;81.07;101281.31;5096232;28;20209;-71
2023/01/07 02:57:05;;;;;;;2.70;2.70;;;;;;;10.34;81.05;101278.66;5096095;28;20217;-71
2023/01/07 02:59:57;;;;;;;2.27;2.17;;;;;;;10.22;81.12;101266.84;5096186;28;20616;-71
2023/01/07 03:03:01;;;;;;;2.27;2.27;;;;;;;10.22;81.01;101264.16;5096192;28;20231;-71
2023/01/07 03:05:38;;;;;;;3.17;3.07;;;;;;;10.23;81.48;101258.72;5096039;28;20246;-71
2023/01/07 03:08:25;;;;;;;2.97;2.77;;;;;;;10.23;81.19;101264.09;5095954;28;20213;-71
2023/01/07 03:11:00;;;;;;;2.90;2.87;;;;;;;10.11;81.87;101254.13;5079347;28;20199;-71
2023/01/07 03:13:50;;;;;;;2.77;2.77;;;;;;;10.07;81.99;101246.38;5095863;28;20686;-71
2023/01/07 03:16:24;;;;;;;3.33;3.33;;;;;;;10.07;81.67;101244.56;5056063;28;20209;-71
2023/01/07 03:19:06;;;;;;;2.90;2.90;;;;;;;10.07;81.50;101241.88;5114178;28;20252;-71
2023/01/07 03:21:34;;;;;;;3.40;3.40;;;;;;;10.06;82.13;101240.19;5114079;28;20181;-71
2023/01/07 03:24:01;;;;;;;2.30;2.30;;;;;;;10.02;81.98;101241.31;5114621;28;20234;-71
2023/01/07 03:26:36;;;;;;;2.73;2.73;;;;;;;10.05;81.88;101240.25;5095951;28;20295;-71
2023/01/07 03:29:06;;;;;;;2.90;2.83;;;;;;;10.00;81.83;101233.38;5114338;28;20168;-71
2023/01/07 03:31:35;;;;;;;3.00;3.00;;;;;;;10.06;81.36;101239.31;5095274;28;20703;-71
2023/01/07 03:34:05;;;;;;;1.83;1.83;;;;;;;10.09;81.45;101242.66;5114407;28;20188;-71
2023/01/07 03:36:36;;;;;;;2.93;2.80;;;;;;;10.08;81.54;101238.28;5114347;28;20212;-71
2023/01/07 03:39:06;;;;;;;2.00;2.00;;;;;;;10.01;81.54;101231.56;5095665;28;20181;-71
2023/01/07 03:44:17;;;;;;;2.50;2.47;;;;;;;10.06;81.41;101233.97;5114008;28;20695;-71
2023/01/07 03:46:44;;;;;;;2.47;2.47;;;;;;;10.04;81.52;101238.56;5096079;28;20304;-71
2023/01/07 03:49:10;;;;;;;2.17;2.17;;;;;;;10.00;81.59;101224.47;5095427;28;20250;-71
2023/01/07 03:51:37;;;;;;;2.30;2.30;;;;;;;9.97;81.69;101222.84;5095577;28;20683;-71
2023/01/07 03:54:04;;;;;;;2.50;2.50;;;;;;;9.99;81.92;101226.31;5095313;28;20682;-71
2023/01/07 03:56:30;;;;;;;2.50;2.50;;;;;;;9.99;81.53;101223.63;5095315;28;20209;-71
2023/01/07 03:58:57;;;;;;;1.83;1.83;;;;;;;9.98;81.49;101221.03;5113894;28;20209;-71
2023/01/07 04:01:23;;;;;;;1.50;1.50;;;;;;;9.94;81.56;101219.53;5095411;28;20287;-71
2023/01/07 04:03:50;;;;;;;1.97;1.97;;;;;;;9.96;81.71;101212.25;5095342;28;20189;-71
2023/01/07 04:06:16;;;;;;;2.03;2.03;;;;;;;9.94;81.55;101214.19;5095313;28;20722;-71
2023/01/07 04:08:43;;;;;;;2.20;2.20;;;;;;;9.91;81.33;101209.88;5095207;28;20209;-71
2023/01/07 04:11:09;;;;;;;1.60;1.60;;;;;;;9.90;81.62;101202.78;5095256;28;20222;-71
2023/01/07 04:13:37;;;;;;;1.70;1.70;;;;;;;9.85;81.64;101204.03;5095102;28;20596;-71
2023/01/07 04:16:03;;;;;;;3.93;1.77;;;;;;;9.87;81.77;101194.09;5095168;28;20235;-70
2023/01/07 04:18:30;;;;;;;1.50;1.50;;;;;;;9.85;81.62;101188.84;5095417;28;20185;-70
2023/01/07 04:20:56;;;;;;;1.40;1.40;;;;;;;9.77;81.65;101193.81;5095057;28;20197;-71
2023/01/07 04:23:23;;;;;;;1.50;1.50;;;;;;;9.77;81.57;101192.00;5095103;28;20186;-71
2023/01/07 04:25:51;;;;;;;1.50;1.50;;;;;;;9.72;81.72;101191.41;5095100;28;20212;-71
2023/01/07 04:28:21;;;;;;;3.33;1.43;;;;;;;9.64;82.07;101190.16;5078701;28;20707;-71
2023/01/07 04:30:47;;;;;;;1.90;1.73;;;;;;;9.67;81.99;101187.28;5095325;28;20228;-71
2023/01/07 04:33:14;;;;;;;1.03;1.03;;;;;;;9.71;82.03;101188.81;5094927;28;20209;-71
2023/01/07 04:35:40;;;;;;;1.70;1.70;;;;;;;9.69;82.03;101182.69;5095092;28;20193;-71
2023/01/07 04:38:07;;;;;;;1.57;1.57;;;;;;;9.68;82.12;101191.69;5095090;28;20213;-71
2023/01/07 04:40:33;;;;;;;1.70;1.70;;;;;;;9.64;82.09;101182.13;5113322;28;20177;-72
2023/01/07 04:43:01;;;;;;;1.80;1.80;;;;;;;9.69;81.87;101183.56;5096951;28;20181;-72
2023/01/07 04:45:28;;;;;;;1.60;1.60;;;;;;;9.73;81.87;101185.09;5099096;28;20204;-71
2023/01/07 04:47:56;;;;;;;1.73;1.63;;;;;;;9.74;81.52;101176.09;5098655;28;20212;-71
2023/01/07 04:50:24;;;;;;;1.97;1.97;;;;;;;9.72;81.75;101172.69;5098561;28;20227;-71
2023/01/07 04:52:50;;;;;;;1.40;1.40;;;;;;;9.74;82.21;101162.72;5098513;28;20209;-71
2023/01/07 04:55:17;;;;;;;1.90;1.90;;;;;;;9.78;81.38;101169.63;5098495;28;20276;-71
2023/01/07 04:57:45;;;;;;;1.67;1.67;;;;;;;9.77;81.42;101159.88;5098379;28;20304;-71
2023/01/07 05:00:13;;;;;;;1.80;1.80;;;;;;;9.86;80.78;101157.59;5099321;28;20250;-71
2023/01/07 05:02:40;;;;;;;2.10;2.10;;;;;;;9.82;81.03;101162.28;5116921;28;20603;-71
2023/01/07 05:05:09;;;;;;;6.43;1.90;;;;;;;9.81;81.14;101147.16;5098345;28;20750;-71
2023/01/07 05:07:37;;;;;;;1.33;1.33;;;;;;;9.82;80.65;101151.59;5098239;28;20205;-70
2023/01/07 05:10:05;;;;;;;1.53;1.53;;;;;;;9.84;80.92;101154.16;5098527;28;20245;-71
2023/01/07 05:12:35;;;;;;;2.20;2.10;;;;;;;9.87;80.50;101143.28;5098132;28;20774;-71
2023/01/07 05:15:05;;;;;;;2.00;2.00;;;;;;;9.84;80.50;101143.44;5098190;28;20193;-71
2023/01/07 05:17:34;;;;;;;1.90;1.90;;;;;;;9.86;80.64;101138.88;5098148;28;20303;-71
2023/01/07 05:20:03;;;;;;;1.50;1.50;;;;;;;9.90;80.24;101135.06;5098009;28;20213;-71
2023/01/07 05:22:30;;;;;;;1.97;1.97;;;;;;;9.89;80.48;101130.63;5097998;28;20190;-71
2023/01/07 05:24:56;;;;;;;2.23;1.97;;;;;;;9.84;80.29;101122.03;5116237;28;20232;-71
2023/01/07 05:27:25;;;;;;;2.03;2.03;;;;;;;9.89;80.08;101125.28;5098101;28;20220;-71
2023/01/07 05:29:51;;;;;;;1.83;1.83;;;;;;;9.91;80.02;101128.72;5081946;28;20239;-71
2023/01/07 05:32:18;;;;;;;2.27;2.10;;;;;;;9.92;79.91;101128.66;5097703;28;20580;-71
2023/01/07 05:34:44;;;;;;;3.37;3.20;;;;;;;9.89;79.98;101125.28;5097787;28;20289;-71
2023/01/07 05:37:11;;;;;;;4.33;3.10;;;;;;;9.82;79.88;101123.94;5097660;28;20232;-71
2023/01/07 05:39:39;;;;;;;3.37;3.37;;;;;;;9.85;80.00;101123.78;5097681;28;20195;-71
2023/01/07 05:42:06;;;;;;;3.03;3.03;;;;;;;9.79;79.99;101112.50;5097654;28;20189;-71
2023/01/07 05:44:33;;;;;;;3.07;2.90;;;;;;;9.84;79.41;101114.91;5097890;28;20280;-71
2023/01/07 05:46:59;;;;;;;3.47;3.10;;;;;;;9.75;80.16;101118.16;5115712;28;20292;-70
2023/01/07 05:49:26;;;;;;;3.50;3.30;;;;;;;9.78;80.17;101118.81;5115803;28;20216;-70
2023/01/07 05:51:52;;;;;;;2.70;2.70;;;;;;;9.73;80.03;101118.22;5116089;28;20185;-70
2023/01/07 05:54:18;;;;;;;3.40;3.30;;;;;;;9.73;79.95;101120.91;5114964;28;20189;-71
2023/01/07 05:56:45;;;;;;;3.10;3.10;;;;;;;9.72;80.04;101113.84;5115503;28;20295;-71
2023/01/07 05:59:11;;;;;;;3.10;3.10;;;;;;;9.73;79.82;101106.69;5116118;28;20581;-71
2023/01/07 06:01:38;;;;;;;3.20;3.20;;;;;;;9.83;79.51;101112.31;5116070;28;20203;-71
2023/01/07 06:04:04;;;;;;;3.47;3.27;;;;;;;9.79;79.65;101109.84;5115796;28;20184;-71
2023/01/07 06:06:30;;;;;;;3.00;3.00;;;;;;;9.71;79.92;101104.09;5115807;28;20297;-70
2023/01/07 06:08:57;;;;;;;2.90;2.90;;;;;;;9.76;79.69;101109.16;5097096;28;20285;-71
2023/01/07 06:11:23;;;;;;;3.47;3.30;;;;;;;9.79;79.33;101098.25;5115349;28;20203;-71
2023/01/07 06:13:50;;;;;;;3.30;3.20;;;;;;;9.72;79.97;101100.47;5115447;28;20632;-71
2023/01/07 06:16:16;;;;;;;3.17;3.07;;;;;;;9.72;79.65;101103.16;5115663;28;20192;-70
2023/01/07 06:18:42;;;;;;;2.93;2.83;;;;;;;9.66;79.71;101100.00;5115674;28;20216;-71
2023/01/07 06:21:09;;;;;;;3.10;3.10;;;;;;;9.68;79.61;101106.09;5115217;28;20224;-71
2023/01/07 06:23:36;;;;;;;4.23;4.13;;;;;;;9.65;79.68;101100.94;5097513;28;20181;-71
2023/01/07 06:26:02;;;;;;;3.37;3.17;;;;;;;9.57;80.02;101088.88;5114947;28;20178;-70
2023/01/07 06:28:28;;;;;;;3.40;3.30;;;;;;;9.59;79.75;101092.34;5115000;28;20280;-70
2023/01/07 06:30:55;;;;;;;2.93;2.93;;;;;;;9.65;79.73;101085.75;5114913;28;20268;-70
2023/01/07 06:33:21;;;;;;;2.90;2.90;;;;;;;9.61;79.23;101086.06;5115595;28;20208;-71
2023/01/07 06:35:48;;;;;;;3.10;2.90;;;;;;;9.53;79.88;101089.19;5114865;28;20217;-71
2023/01/07 06:38:14;;;;;;;3.93;3.47;;;;;;;9.50;79.83;101086.69;5114714;28;20685;-71
2023/01/07 06:40:40;;;;;;;3.77;3.67;;;;;;;9.44;79.78;101079.06;5114797;28;20272;-71
2023/01/07 06:43:07;;;;;;;2.93;2.73;;;;;;;9.42;79.86;101080.97;5114922;28;20276;-71
2023/01/07 06:45:33;;;;;;;2.23;2.23;;;;;;;9.56;79.58;101087.19;5114715;28;20209;-71
2023/01/07 06:48:00;;;;;;;2.73;2.50;;;;;;;9.51;79.30;101081.25;5114501;28;20208;-71
2023/01/07 06:50:26;;;;;;;2.80;2.80;;;;;;;9.54;79.34;101078.41;5114591;28;20719;-71
2023/01/07 06:52:53;;;;;;;2.87;2.87;;;;;;;9.53;79.21;101078.50;5114419;28;20207;-71
2023/01/07 06:55:19;;;;;;;3.93;2.60;;;;;;;9.49;79.41;101075.16;5114982;28;20235;-71
2023/01/07 06:57:46;;;;;;;2.43;2.40;;;;;;;9.54;79.05;101075.72;5114931;28;20204;-71
2023/01/07 07:00:13;;;;;;;11.77;10.67;;;;;;;9.48;79.29;101070.78;5114348;28;20760;-71
2023/01/07 07:02:39;;;;;;;2.20;2.20;;;;;;;9.51;79.59;101069.72;5114889;28;20197;-71
2023/01/07 07:05:06;;;;;;;2.13;2.13;;;;;;;9.47;79.30;101078.88;5114261;28;20197;-71
2023/01/07 07:07:33;;;;;;;2.60;2.50;;;;;;;9.45;79.48;101070.09;5113847;28;20619;-71
2023/01/07 07:10:03;;;;;;;2.37;2.37;;;;;;;9.44;79.59;101071.06;5114728;28;20189;-71
2023/01/07 07:12:29;;;;;;;2.30;2.30;;;;;;;9.45;79.47;101075.44;5114722;28;20284;-71
2023/01/07 07:14:56;;;;;;;2.50;2.30;;;;;;;9.46;79.67;101070.00;5114142;28;20195;-70
2023/01/07 07:17:22;;;;;;;13.03;2.93;;;;;;;9.48;79.42;101068.09;5114227;28;20205;-71
2023/01/07 07:19:48;;;;;;;3.40;3.40;;;;;;;9.48;79.77;101072.56;5114356;28;20181;-71
2023/01/07 07:22:15;;;;;;;3.60;3.40;;;;;;;9.51;79.75;101065.22;5113977;28;20276;-70
2023/01/07 07:24:41;;;;;;;6.83;3.47;;;;;;;9.50;79.58;101066.16;5113992;28;20598;-70
2023/01/07 07:27:08;;;;;;;2.40;2.40;;;;;;;9.53;79.49;101065.13;5114435;28;20236;-71
2023/01/07 07:29:34;;;;;;;2.83;2.83;;;;;;;9.55;79.44;101055.19;5114469;28;20264;-71
2023/01/07 07:32:00;;;;;;;2.80;2.70;;;;;;;9.59;79.56;101052.22;5114113;28;20213;-71
2023/01/07 07:34:27;;;;;;;3.33;3.13;;;;;;;9.59;79.50;101052.22;5114381;28;20199;-71
2023/01/07 07:36:53;;;;;;;2.63;2.50;;;;;;;9.57;79.50;101053.28;5113866;28;20296;-71
2023/01/07 07:39:20;;;;;;;3.60;2.47;;;;;;;9.61;79.79;101057.50;5113776;28;20214;-71
2023/01/07 07:41:46;;;;;;;2.63;2.63;;;;;;;9.67;79.05;101050.88;5113920;28;20187;-71
2023/01/07 07:44:15;;;;;;;2.30;2.30;;;;;;;9.70;78.68;101053.38;5095479;28;20272;-71
2023/01/07 07:46:42;;;;;;;2.37;2.37;;;;;;;9.75;78.48;101046.78;5114212;28;20280;-70
2023/01/07 07:49:10;;;;;;;2.33;2.33;;;;;;;9.86;77.75;101042.56;5113681;28;20217;-71
2023/01/07 07:51:37;;;;;;;2.43;2.43;;;;;;;9.82;78.02;101041.91;5113926;28;20164;-71
2023/01/07 07:54:03;;;;;;;2.73;2.73;;;;;;;9.84;77.58;101042.69;5113550;28;20213;-71
2023/01/07 07:56:29;;;;;;;2.50;2.50;;;;;;;9.85;77.71;101033.69;5113498;28;20637;-70
2023/01/07 07:58:56;;;;;;;7.83;2.23;;;;;;;9.86;77.62;101026.50;5113556;28;20181;-71
2023/01/07 08:01:22;;;;;;;2.20;2.20;;;;;;;9.87;77.15;101026.41;5113526;28;20245;-71
2023/01/07 08:03:49;;;;;;;2.53;2.33;;;;;;;9.92;76.85;101026.97;5113465;28;20193;-71
2023/01/07 08:06:15;;;;;;;2.73;2.73;;;;;;;10.00;76.07;101013.09;5095197;28;20193;-71
2023/01/07 08:08:42;;;;;;;2.20;2.20;;;;;;;9.96;76.72;101006.22;5113714;28;20275;-71
2023/01/07 08:11:08;;;;;;;2.40;2.40;;;;;;;9.98;76.41;101017.69;5113448;28;20189;-71
2023/01/07 08:13:35;;;;;;;2.13;2.13;;;;;;;10.00;76.00;101010.41;5113366;28;20211;-71
2023/01/07 08:16:01;;;;;;;2.33;2.20;;;;;;;9.99;76.25;101014.91;5113877;28;20310;-71
2023/01/07 08:18:27;;;;;;;2.40;2.40;;;;;;;9.98;75.96;101012.34;5116586;28;20215;-71
2023/01/07 08:20:54;;;;;;;2.30;2.30;;;;;;;9.99;75.77;101012.25;5117497;28;20199;-71
2023/01/07 08:23:21;;;;;;;2.30;2.30;;;;;;;10.05;75.52;101018.16;5117367;28;20579;-71
2023/01/07 08:25:47;;;;;;;2.60;2.43;;;;;;;10.06;75.23;101010.03;5117615;28;20184;-71
2023/01/07 08:28:14;;;;;;;2.13;2.03;;;;;;;10.12;75.48;101014.13;5118563;28;20667;-71
2023/01/07 08:30:41;;;;;;;1.77;1.77;;;;;;;10.10;75.16;101013.34;5117317;28;20185;-71
2023/01/07 08:33:08;;;;;;;1.93;1.93;;;;;;;10.07;74.92;101017.09;5117143;28;20208;-71
2023/01/07 08:35:34;;;;;;;4.10;2.40;;;;;;;10.09;74.19;101007.16;5117782;28;20177;-71
2023/01/07 08:38:06;;;;;;;2.70;2.00;;;;;;;10.10;73.64;101000.81;5117071;28;20215;-71
2023/01/07 08:40:34;;;;;;;2.27;2.27;;;;;;;10.19;73.43;101004.72;5117156;28;20539;-71
2023/01/07 08:43:03;;;;;;;13.33;2.73;;;;;;;10.20;73.05;100996.63;5117040;28;20187;-71
2023/01/07 08:45:30;;;;;;;1.40;1.40;;;;;;;10.22;71.92;100997.38;5117264;28;20646;-71
2023/01/07 08:47:56;;;;;;;1.73;1.63;;;;;;;10.23;71.81;100992.88;5116932;28;20617;-71
2023/01/07 08:50:28;;;;;;;1.50;1.50;;;;;;;10.24;72.49;100989.22;5117157;28;20173;-71
2023/01/07 08:52:55;;;;;;;5.30;1.90;;;;;;;10.20;72.33;100996.63;5117535;28;20228;-71
2023/01/07 08:55:21;;;;;;;1.93;1.93;;;;;;;10.17;71.65;100987.91;5120247;28;20189;-71
2023/01/07 08:57:48;;;;;;;3.50;1.87;;;;;;;10.23;71.73;100992.88;5134313;28;20213;-71
2023/01/07 09:00:16;;;;;;;1.73;1.73;;;;;;;10.27;71.02;100994.41;5117022;28;20197;-71
2023/01/07 09:02:43;;;;;;;1.57;1.57;;;;;;;10.28;71.07;100996.13;5133056;28;20185;-71
2023/01/07 09:05:10;;;;;;;1.87;1.87;;;;;;;10.24;69.95;100994.56;5122819;28;20197;-71
2023/01/07 09:07:36;;;;;;;1.93;1.80;;;;;;;10.27;70.26;100991.72;5121295;28;20236;-70
2023/01/07 09:10:04;;;;;;;1.77;1.77;;;;;;;10.26;70.39;100987.31;5127794;28;20193;-70
2023/01/07 09:12:31;;;;;;;1.73;1.73;;;;;;;10.26;69.84;100991.81;5127855;28;20249;-71
2023/01/07 09:14:57;;;;;;;1.20;1.20;;;;;;;10.28;69.09;100989.88;5125369;28;20247;-71
2023/01/07 09:17:23;;;;;;;1.83;1.83;;;;;;;10.31;68.79;100995.06;5124968;28;20292;-70
2023/01/07 09:19:50;;;;;;;2.53;1.60;;;;;;;10.29;69.77;100987.13;5127676;28;20185;-70
2023/01/07 09:22:16;;;;;;;1.60;1.50;;;;;;;10.34;69.06;100985.03;5127549;28;20203;-70
2023/01/07 09:24:42;;;;;;;1.30;1.30;;;;;;;10.36;69.33;100984.91;5128027;28;20197;-70
2023/01/07 09:27:11;;;;;;;1.77;1.77;;;;;;;10.35;69.12;100989.41;5120449;28;20205;-70
2023/01/07 09:29:37;;;;;;;1.90;1.90;;;;;;;10.31;69.75;100981.69;5115619;28;20526;-70
2023/01/07 09:32:04;;;;;;;1.50;1.50;;;;;;;10.31;69.81;100970.97;5116414;28;20220;-70
2023/01/07 09:34:31;;;;;;;1.73;1.73;;;;;;;10.31;69.72;100965.63;5116268;28;20211;-71
2023/01/07 09:36:57;;;;;;;1.80;1.80;;;;;;;10.36;69.58;100971.53;5116243;28;20574;-70
2023/01/07 09:39:23;;;;;;;1.73;1.73;;;;;;;10.36;69.92;100968.84;5116232;28;20194;-70
2023/01/07 09:42:02;;;;;;;2.20;2.20;;;;;;;10.33;70.19;100969.06;5115816;28;20195;-70
2023/01/07 09:44:40;;;;;;;2.30;2.20;;;;;;;10.33;70.47;100966.38;5116174;28;20597;-71
2023/01/07 09:47:08;;;;;;;2.17;2.17;;;;;;;10.38;70.26;100969.59;5116008;28;20224;-71
2023/01/07 09:49:35;;;;;;;2.00;2.00;;;;;;;10.35;70.44;100964.47;5116351;28;20248;-71
2023/01/07 09:52:09;;;;;;;1.97;1.97;;;;;;;10.34;70.50;100960.06;5115655;28;20189;-71
2023/01/07 09:54:38;;;;;;;1.93;1.93;;;;;;;10.35;70.68;100964.47;5116417;28;20544;-71
2023/01/07 09:57:04;;;;;;;2.37;2.17;;;;;;;10.37;71.01;100963.41;5115554;28;20296;-70
2023/01/07 09:59:31;;;;;;;2.57;2.47;;;;;;;10.38;70.88;100956.22;5116138;28;20185;-70
2023/01/07 10:02:36;;;;;;;1.60;1.60;;;;;;;10.38;71.10;100956.22;5115542;28;20189;-70
2023/01/07 10:05:37;;;;;;;2.00;1.67;;;;;;;10.35;71.02;100953.75;5115758;28;20165;-70
2023/01/07 10:08:36;;;;;;;2.63;2.13;;;;;;;10.31;71.01;100947.72;5115295;28;20209;-70
2023/01/07 10:11:32;;;;;;;2.73;1.90;;;;;;;10.35;70.94;100949.25;5115867;28;20180;-70
2023/01/07 10:14:36;;;;;;;2.57;1.90;;;;;;;10.38;70.89;100945.50;5115483;28;20202;-70
2023/01/07 10:17:25;;;;;;;1.77;1.77;;;;;;;10.46;70.85;100943.16;5115420;28;20208;-70
2023/01/07 10:20:06;;;;;;;1.90;1.80;;;;;;;10.43;70.17;100938.00;5115736;28;20258;-70
2023/01/07 10:22:47;;;;;;;1.77;1.77;;;;;;;10.47;70.91;100934.19;5115413;28;20564;-71
2023/01/07 10:25:19;;;;;;;1.63;1.63;;;;;;;10.42;70.91;100933.63;5115638;28;20169;-71
2023/01/07 10:27:47;;;;;;;1.90;1.90;;;;;;;10.48;70.82;100930.53;5115244;28;20212;-70
2023/01/07 10:30:29;;;;;;;1.97;1.97;;;;;;;10.43;71.28;100925.47;5115501;28;20698;-70
2023/01/07 10:33:16;;;;;;;1.97;1.97;;;;;;;10.49;70.62;100921.53;5096732;28;20608;-71
2023/01/07 10:35:47;;;;;;;1.83;1.83;;;;;;;10.50;70.90;100922.41;5115410;28;20180;-71
2023/01/07 10:38:18;;;;;;;2.03;2.03;;;;;;;10.56;70.66;100914.81;5114764;28;20754;-70
2023/01/07 10:40:56;;;;;;;2.40;2.40;;;;;;;10.62;70.77;100910.84;5114888;28;20179;-70
2023/01/07 10:43:45;;;;;;;2.60;2.03;;;;;;;10.71;71.35;100904.00;5115306;28;20246;-70
2023/01/07 10:46:46;;;;;;;2.17;2.17;;;;;;;10.86;70.36;100892.19;5114879;28;20268;-70
2023/01/07 10:49:43;;;;;;;2.00;2.00;;;;;;;10.99;69.35;100886.81;5115197;28;20168;-70
2023/01/07 10:52:18;;;;;;;2.10;2.10;;;;;;;11.00;69.01;100878.66;5114887;28;20203;-70
2023/01/07 10:55:04;;;;;;;2.17;2.17;;;;;;;11.11;69.52;100880.59;5114497;28;20207;-70
2023/01/07 10:57:32;;;;;;;2.13;2.13;;;;;;;11.18;69.31;100862.22;5114943;28;20307;-70
2023/01/07 11:00:01;;;;;;;1.97;1.97;;;;;;;11.27;66.95;100859.75;5114392;28;20193;-70
2023/01/07 11:02:28;;;;;;;1.87;1.87;;;;;;;11.33;66.44;100845.03;5114597;28;20709;-70
2023/01/07 11:04:56;;;;;;;2.20;2.20;;;;;;;11.43;66.67;100850.59;5114241;28;20647;-70
2023/01/07 11:07:39;;;;;;;2.40;2.40;;;;;;;11.41;65.95;100836.44;5114357;28;20211;-70
2023/01/07 11:10:11;;;;;;;1.60;1.60;;;;;;;11.46;66.44;100827.06;5114838;28;20251;-70
2023/01/07 11:12:50;;;;;;;6.13;2.00;;;;;;;11.50;65.22;100820.50;5114539;28;20577;-70
2023/01/07 11:15:38;;;;;;;1.93;1.93;;;;;;;11.50;66.00;100817.00;5114639;28;20215;-70
2023/01/07 11:18:30;;;;;;;1.90;1.90;;;;;;;11.54;64.37;100813.13;5114127;28;20215;-71
2023/01/07 11:20:58;;;;;;;1.80;1.70;;;;;;;11.53;64.81;100802.50;5114644;28;20271;-71
2023/01/07 11:23:37;;;;;;;2.37;2.37;;;;;;;11.61;63.89;100810.81;5113948;28;20682;-71
2023/01/07 11:26:15;;;;;;;2.23;2.23;;;;;;;11.49;64.65;100792.00;5114431;28;20180;-70
2023/01/07 11:29:12;;;;;;;2.40;2.17;;;;;;;11.59;63.14;100776.06;5113976;28;20279;-70
2023/01/07 11:31:49;;;;;;;2.70;2.70;;;;;;;11.47;63.84;100785.88;5113764;28;20173;-70
2023/01/07 11:34:22;;;;;;;2.40;2.20;;;;;;;11.51;63.68;100778.44;5113920;28;20199;-70
2023/01/07 11:36:50;;;;;;;3.50;2.03;;;;;;;11.54;63.08;100778.25;5114211;28;20235;-71
2023/01/07 11:39:28;;;;;;;2.60;2.60;;;;;;;11.49;63.31;100762.50;5113880;28;20230;-71
2023/01/07 11:41:56;;;;;;;4.33;3.60;;;;;;;11.51;62.71;100751.63;5114416;28;20226;-70
2023/01/07 11:44:24;;;;;;;2.50;2.50;;;;;;;11.48;62.11;100750.03;5114916;28;20535;-70
2023/01/07 11:46:51;;;;;;;2.77;2.77;;;;;;;11.48;62.27;100746.50;5114255;28;20292;-71
2023/01/07 11:49:22;;;;;;;2.47;2.47;;;;;;;11.48;62.59;100735.78;5113707;28;20189;-70